createdAt,value
2023-05-07T00:00:37.570Z,83.47
2023-05-07T00:03:29.605Z,83.51
2023-05-07T00:06:02.007Z,83.41
2023-05-07T00:08:33.276Z,83.43
2023-05-07T00:11:09.194Z,83.31
2023-05-07T00:13:40.563Z,83.21
2023-05-07T00:16:13.099Z,83.05
2023-05-07T00:18:45.876Z,83.38
2023-05-07T00:21:18.837Z,83.23
2023-05-07T00:23:57.120Z,83.22
2023-05-07T00:26:31.207Z,83.17
2023-05-07T00:29:04.868Z,83.30
2023-05-07T00:31:38.737Z,83.18
2023-05-07T00:34:10.628Z,83.32
2023-05-07T00:36:42.974Z,83.35
2023-05-07T00:39:15.598Z,83.28
2023-05-07T00:41:48.304Z,83.33
2023-05-07T00:44:21.664Z,83.15
2023-05-07T00:46:54.876Z,83.29
2023-05-07T00:49:37.762Z,83.20
2023-05-07T00:52:12.522Z,83.18
2023-05-07T00:54:46.848Z,83.19
2023-05-07T00:57:21.445Z,83.24
2023-05-07T00:59:54.742Z,83.08
2023-05-07T01:02:29.529Z,83.23
2023-05-07T01:05:05.265Z,83.17
2023-05-07T01:07:38.253Z,83.21
2023-05-07T01:10:14.250Z,83.09
2023-05-07T01:12:47.431Z,83.17
2023-05-07T01:15:21.929Z,83.11
2023-05-07T01:17:55.397Z,83.07
2023-05-07T01:20:33.227Z,83.06
2023-05-07T01:23:09.176Z,83.04
2023-05-07T01:25:42.628Z,83.08
2023-05-07T01:28:16.939Z,83.05
2023-05-07T01:30:54.133Z,82.94
2023-05-07T01:33:28.937Z,82.96
2023-05-07T01:36:05.399Z,83.00
2023-05-07T01:38:39.354Z,83.07
2023-05-07T01:41:10.899Z,83.20
2023-05-07T01:43:46.805Z,83.27
2023-05-07T01:46:19.861Z,83.30
2023-05-07T01:48:52.356Z,83.25
2023-05-07T01:51:25.542Z,83.56
2023-05-07T01:53:58.575Z,83.29
2023-05-07T01:56:31.515Z,83.49
2023-05-07T01:59:04.097Z,83.54
2023-05-07T02:01:39.692Z,83.53
2023-05-07T02:04:12.297Z,83.52
2023-05-07T02:06:46.136Z,83.49
2023-05-07T02:09:20.931Z,83.53
2023-05-07T02:11:58.305Z,83.54
2023-05-07T02:14:34.339Z,83.43
2023-05-07T02:17:07.502Z,83.56
2023-05-07T02:19:39.987Z,83.59
2023-05-07T02:22:13.109Z,83.64
2023-05-07T02:24:46.929Z,83.52
2023-05-07T02:27:19.044Z,83.62
2023-05-07T02:29:52.328Z,83.58
2023-05-07T02:32:25.280Z,83.66
2023-05-07T02:34:58.720Z,83.87
2023-05-07T02:37:30.196Z,83.79
2023-05-07T02:40:05.339Z,83.85
2023-05-07T02:42:38.707Z,83.86
2023-05-07T02:45:15.851Z,83.82
2023-05-07T02:47:48.275Z,83.81
2023-05-07T02:50:21.766Z,84.13
2023-05-07T02:52:54.849Z,84.15
2023-05-07T02:55:27.850Z,84.16
2023-05-07T02:58:01.292Z,84.27
2023-05-07T03:00:34.842Z,84.28
2023-05-07T03:03:31.412Z,84.30
2023-05-07T03:06:05.048Z,84.33
2023-05-07T03:08:38.581Z,84.22
2023-05-07T03:11:10.322Z,84.05
2023-05-07T03:13:43.713Z,84.00
2023-05-07T03:16:16.957Z,83.92
2023-05-07T03:18:51.537Z,84.02
2023-05-07T03:21:24.323Z,83.92
2023-05-07T03:23:56.101Z,83.99
2023-05-07T03:26:29.159Z,84.08
2023-05-07T03:29:01.999Z,84.02
2023-05-07T03:31:33.960Z,84.03
2023-05-07T03:34:05.599Z,84.07
2023-05-07T03:36:39.367Z,83.93
2023-05-07T03:39:16.224Z,83.74
2023-05-07T03:41:48.083Z,83.78
2023-05-07T03:44:21.013Z,83.85
2023-05-07T03:46:54.460Z,83.88
2023-05-07T03:49:27.857Z,83.94
2023-05-07T03:51:58.848Z,83.96
2023-05-07T03:54:33.878Z,84.20
2023-05-07T03:57:07.054Z,84.19
2023-05-07T03:59:40.968Z,84.25
2023-05-07T04:02:14.679Z,84.27
2023-05-07T04:04:48.364Z,84.27
2023-05-07T04:07:21.825Z,84.31
2023-05-07T04:09:55.776Z,84.29
2023-05-07T04:12:28.854Z,84.35
2023-05-07T04:15:05.277Z,84.32
2023-05-07T04:17:38.463Z,84.36
2023-05-07T04:20:18.397Z,84.24
2023-05-07T04:22:53.670Z,84.28
2023-05-07T04:25:28.525Z,84.27
2023-05-07T04:28:08.194Z,84.21
2023-05-07T04:30:40.064Z,84.16
2023-05-07T04:33:13.093Z,84.27
2023-05-07T04:35:47.831Z,84.16
2023-05-07T04:38:25.600Z,84.23
2023-05-07T04:41:05.596Z,84.03
2023-05-07T04:43:39.881Z,83.96
2023-05-07T04:46:17.234Z,83.86
2023-05-07T04:48:54.924Z,83.86
2023-05-07T04:51:30.074Z,83.76
2023-05-07T04:54:03.204Z,83.76
2023-05-07T04:56:37.811Z,83.75
2023-05-07T04:59:10.258Z,83.66
2023-05-07T05:01:43.320Z,83.59
2023-05-07T05:04:18.936Z,83.65
2023-05-07T05:06:52.139Z,83.42
2023-05-07T05:09:23.540Z,83.68
2023-05-07T05:11:56.146Z,83.72
2023-05-07T05:14:28.876Z,83.55
2023-05-07T05:17:00.982Z,83.14
2023-05-07T05:19:34.493Z,82.84
2023-05-07T05:22:08.529Z,82.76
2023-05-07T05:24:42.535Z,82.55
2023-05-07T05:27:16.349Z,82.42
2023-05-07T05:29:51.400Z,81.94
2023-05-07T05:32:24.802Z,81.69
2023-05-07T05:34:59.459Z,81.04
2023-05-07T05:37:33.225Z,80.09
2023-05-07T05:40:07.685Z,79.74
2023-05-07T05:42:39.380Z,79.75
2023-05-07T05:45:12.565Z,79.18
2023-05-07T05:47:46.482Z,79.28
2023-05-07T05:50:19.713Z,78.82
2023-05-07T05:52:52.430Z,78.25
2023-05-07T05:55:27.194Z,77.36
2023-05-07T05:58:00.329Z,76.77
2023-05-07T06:00:34.994Z,76.18
2023-05-07T06:03:12.087Z,75.21
2023-05-07T06:05:49.350Z,75.49
2023-05-07T06:08:23.447Z,74.88
2023-05-07T06:10:56.155Z,73.97
2023-05-07T06:13:29.310Z,73.87
2023-05-07T06:16:04.006Z,73.82
2023-05-07T06:18:37.938Z,73.48
2023-05-07T06:21:12.126Z,73.02
2023-05-07T06:23:46.012Z,73.26
2023-05-07T06:26:18.945Z,73.76
2023-05-07T06:28:53.250Z,73.17
2023-05-07T06:31:24.059Z,72.81
2023-05-07T06:34:08.128Z,72.85
2023-05-07T06:36:42.993Z,73.14
2023-05-07T06:39:37.913Z,73.00
2023-05-07T06:42:12.045Z,73.11
2023-05-07T06:44:50.131Z,73.14
2023-05-07T06:47:24.408Z,73.34
2023-05-07T06:49:58.536Z,72.91
2023-05-07T06:52:33.504Z,72.32
2023-05-07T06:55:09.902Z,71.94
2023-05-07T06:57:42.950Z,71.79
2023-05-07T07:00:20.868Z,72.40
2023-05-07T07:02:57.428Z,73.00
2023-05-07T07:05:32.963Z,72.99
2023-05-07T07:08:09.167Z,73.07
2023-05-07T07:10:43.476Z,73.17
2023-05-07T07:13:17.520Z,73.08
2023-05-07T07:15:49.579Z,72.66
2023-05-07T07:18:25.092Z,72.73
2023-05-07T07:20:58.626Z,72.83
2023-05-07T07:23:33.779Z,72.98
2023-05-07T07:26:11.969Z,72.78
2023-05-07T07:28:50.239Z,73.10
2023-05-07T07:31:24.719Z,73.14
2023-05-07T07:33:58.681Z,72.93
2023-05-07T07:36:45.079Z,73.24
2023-05-07T07:39:20.184Z,72.52
2023-05-07T07:41:56.909Z,71.78
2023-05-07T07:44:32.520Z,71.73
2023-05-07T07:47:08.819Z,72.00
2023-05-07T07:49:42.567Z,71.78
2023-05-07T07:52:15.172Z,71.59
2023-05-07T07:54:49.338Z,70.82
2023-05-07T07:57:26.440Z,70.53
2023-05-07T07:59:59.526Z,69.95
2023-05-07T08:02:33.059Z,69.80
2023-05-07T08:05:08.987Z,69.75
2023-05-07T08:07:40.376Z,70.01
2023-05-07T08:10:11.985Z,69.67
2023-05-07T08:12:44.234Z,69.10
2023-05-07T08:15:18.698Z,68.38
2023-05-07T08:17:53.367Z,68.06
2023-05-07T08:20:32.149Z,67.94
2023-05-07T08:23:04.289Z,67.88
2023-05-07T08:25:38.704Z,66.42
2023-05-07T08:28:15.090Z,65.82
2023-05-07T08:30:48.302Z,66.17
2023-05-07T08:33:21.439Z,66.08
2023-05-07T08:35:56.450Z,66.10
2023-05-07T08:38:28.931Z,65.63
2023-05-07T08:41:01.136Z,65.68
2023-05-07T08:43:38.850Z,65.36
2023-05-07T08:46:13.194Z,65.47
2023-05-07T08:48:50.055Z,65.15
2023-05-07T08:51:24.115Z,64.43
2023-05-07T08:54:00.496Z,63.54
2023-05-07T08:56:36.000Z,63.14
2023-05-07T08:59:14.045Z,64.01
2023-05-07T09:01:46.441Z,64.44
2023-05-07T09:04:18.662Z,63.74
2023-05-07T09:06:52.873Z,63.29
2023-05-07T09:09:30.769Z,62.99
2023-05-07T09:12:05.018Z,62.74
2023-05-07T09:14:39.469Z,62.90
2023-05-07T09:17:15.308Z,62.79
2023-05-07T09:19:48.929Z,62.43
2023-05-07T09:22:23.400Z,62.14
2023-05-07T09:25:09.401Z,61.45
2023-05-07T09:27:44.422Z,60.83
2023-05-07T09:30:17.082Z,60.40
2023-05-07T09:32:50.754Z,60.79
2023-05-07T09:35:27.825Z,61.37
2023-05-07T09:38:04.660Z,60.63
2023-05-07T09:40:39.095Z,60.27
2023-05-07T09:43:15.966Z,60.18
2023-05-07T09:45:57.792Z,59.69
2023-05-07T09:48:44.231Z,59.17
2023-05-07T09:51:28.127Z,58.78
2023-05-07T09:54:08.346Z,58.41
2023-05-07T09:56:47.364Z,58.68
2023-05-07T09:59:21.345Z,58.55
2023-05-07T10:01:56.520Z,58.12
2023-05-07T10:04:28.434Z,58.17
2023-05-07T10:07:02.402Z,58.14
2023-05-07T10:09:39.631Z,57.61
2023-05-07T10:12:14.155Z,57.53
2023-05-07T10:14:49.114Z,57.78
2023-05-07T10:17:21.666Z,57.62
2023-05-07T10:19:55.258Z,57.30
2023-05-07T10:22:31.105Z,57.79
2023-05-07T10:25:09.114Z,56.43
2023-05-07T10:27:42.012Z,56.28
2023-05-07T10:30:31.147Z,55.97
2023-05-07T10:33:08.797Z,55.87
2023-05-07T10:35:50.008Z,55.61
2023-05-07T10:38:22.903Z,55.69
2023-05-07T10:40:56.560Z,55.69
2023-05-07T10:43:40.119Z,55.72
2023-05-07T10:46:18.062Z,55.70
2023-05-07T10:49:25.077Z,55.33
2023-05-07T10:52:19.612Z,55.05
2023-05-07T10:55:28.831Z,55.47
2023-05-07T11:01:55.241Z,53.86
2023-05-07T11:05:24.644Z,53.20
2023-05-07T11:08:24.392Z,52.81
2023-05-07T11:11:08.950Z,53.02
2023-05-07T11:13:50.246Z,53.39
2023-05-07T11:16:38.415Z,52.50
2023-05-07T11:19:59.172Z,52.35
2023-05-07T11:22:44.590Z,52.69
2023-05-07T11:25:47.981Z,52.10
2023-05-07T11:28:26.861Z,51.80
2023-05-07T11:31:06.620Z,51.17
2023-05-07T11:33:38.966Z,51.29
2023-05-07T11:36:14.049Z,51.50
2023-05-07T11:38:50.542Z,51.84
2023-05-07T11:41:22.652Z,51.97
2023-05-07T11:44:02.405Z,50.61
2023-05-07T11:46:37.092Z,51.07
2023-05-07T11:49:11.032Z,50.88
2023-05-07T11:51:43.961Z,50.23
2023-05-07T11:54:16.509Z,48.99
2023-05-07T11:56:48.279Z,49.11
2023-05-07T11:59:23.170Z,48.75
2023-05-07T12:01:58.685Z,49.06
2023-05-07T12:04:32.610Z,49.07
2023-05-07T12:07:05.901Z,48.53
2023-05-07T12:09:38.798Z,48.48
2023-05-07T12:12:12.596Z,48.94
2023-05-07T12:14:48.044Z,48.55
2023-05-07T12:17:22.126Z,47.95
2023-05-07T12:19:55.005Z,47.91
2023-05-07T12:22:29.036Z,47.82
2023-05-07T12:25:02.784Z,48.30
2023-05-07T12:27:37.578Z,47.89
2023-05-07T12:30:16.961Z,47.63
2023-05-07T12:32:48.617Z,47.36
2023-05-07T12:35:26.907Z,46.70
2023-05-07T12:38:04.791Z,47.05
2023-05-07T12:40:48.419Z,46.11
2023-05-07T12:43:21.533Z,46.61
2023-05-07T12:45:54.440Z,46.52
2023-05-07T12:48:27.437Z,46.37
2023-05-07T12:51:01.901Z,46.23
2023-05-07T12:53:35.704Z,45.72
2023-05-07T12:56:09.426Z,45.58
2023-05-07T12:58:40.195Z,45.98
2023-05-07T13:01:15.925Z,45.78
2023-05-07T13:03:52.247Z,45.68
2023-05-07T13:06:27.395Z,45.35
2023-05-07T13:08:59.548Z,45.49
2023-05-07T13:11:33.089Z,44.58
2023-05-07T13:14:05.156Z,43.94
2023-05-07T13:16:36.579Z,43.90
2023-05-07T13:19:09.484Z,44.10
2023-05-07T13:21:42.088Z,44.13
2023-05-07T13:24:14.612Z,44.66
2023-05-07T13:26:47.232Z,44.45
2023-05-07T13:29:19.133Z,44.39
2023-05-07T13:31:51.690Z,44.00
2023-05-07T13:34:23.144Z,44.07
2023-05-07T13:36:56.297Z,44.13
2023-05-07T13:39:26.594Z,43.95
2023-05-07T13:41:57.672Z,43.89
2023-05-07T13:44:30.660Z,43.79
2023-05-07T13:47:04.023Z,43.17
2023-05-07T13:49:38.672Z,42.58
2023-05-07T13:52:10.585Z,42.47
2023-05-07T13:54:41.932Z,42.45
2023-05-07T13:57:12.657Z,42.95
2023-05-07T13:59:44.878Z,42.99
2023-05-07T14:02:16.990Z,42.78
2023-05-07T14:04:49.406Z,42.97
2023-05-07T14:07:22.144Z,42.33
2023-05-07T14:09:56.689Z,42.84
2023-05-07T14:12:30.695Z,42.88
2023-05-07T14:15:03.134Z,43.28
2023-05-07T14:17:36.937Z,42.93
2023-05-07T14:20:13.157Z,42.49
2023-05-07T14:22:46.691Z,42.82
2023-05-07T14:25:19.835Z,42.57
2023-05-07T14:27:55.708Z,42.18
2023-05-07T14:30:29.958Z,41.89
2023-05-07T14:33:05.707Z,41.98
2023-05-07T14:35:49.068Z,42.19
2023-05-07T14:38:21.867Z,42.54
2023-05-07T14:40:56.468Z,42.28
2023-05-07T14:43:29.302Z,42.12
2023-05-07T14:46:06.104Z,42.19
2023-05-07T14:48:39.761Z,41.20
2023-05-07T14:51:11.808Z,41.70
2023-05-07T14:53:45.096Z,41.20
2023-05-07T14:56:20.078Z,41.49
2023-05-07T14:58:56.610Z,41.59
2023-05-07T15:01:30.438Z,41.06
2023-05-07T15:04:10.423Z,40.85
2023-05-07T15:06:41.874Z,40.83
2023-05-07T15:09:15.772Z,41.34
2023-05-07T15:11:48.734Z,41.83
2023-05-07T15:14:19.698Z,41.16
2023-05-07T15:16:53.414Z,41.03
2023-05-07T15:19:26.404Z,41.11
2023-05-07T15:21:59.063Z,41.62
2023-05-07T15:24:33.085Z,41.27
2023-05-07T15:27:08.401Z,40.99
2023-05-07T15:29:41.592Z,41.71
2023-05-07T15:32:16.637Z,40.88
2023-05-07T15:34:48.830Z,40.00
2023-05-07T15:37:24.877Z,41.11
2023-05-07T15:40:03.544Z,41.96
2023-05-07T15:42:36.003Z,41.82
2023-05-07T15:45:12.019Z,41.39
2023-05-07T15:47:44.279Z,40.82
2023-05-07T15:50:17.008Z,41.26
2023-05-07T15:52:48.211Z,41.63
2023-05-07T15:55:21.025Z,41.47
2023-05-07T15:57:55.210Z,41.85
2023-05-07T16:00:30.224Z,41.57
2023-05-07T16:03:03.513Z,42.48
2023-05-07T16:05:36.453Z,42.13
2023-05-07T16:08:10.567Z,42.03
2023-05-07T16:10:42.869Z,41.85
2023-05-07T16:13:12.256Z,41.65
2023-05-07T16:15:47.201Z,40.64
2023-05-07T16:18:20.452Z,40.33
2023-05-07T16:20:54.522Z,39.90
2023-05-07T16:23:27.148Z,39.47
2023-05-07T16:26:00.549Z,39.45
2023-05-07T16:28:35.295Z,39.55
2023-05-07T16:31:10.285Z,40.22
2023-05-07T16:33:43.254Z,40.05
2023-05-07T16:36:15.604Z,39.66
2023-05-07T16:38:48.279Z,39.92
2023-05-07T16:41:22.269Z,38.97
2023-05-07T16:43:57.559Z,38.93
2023-05-07T16:46:31.160Z,39.00
2023-05-07T16:49:04.610Z,38.86
2023-05-07T16:51:38.847Z,39.30
2023-05-07T16:54:10.656Z,39.65
2023-05-07T16:56:48.063Z,39.95
2023-05-07T16:59:20.190Z,40.12
2023-05-07T17:01:51.887Z,40.02
2023-05-07T17:04:22.160Z,39.87
2023-05-07T17:06:55.302Z,39.75
2023-05-07T17:09:26.466Z,40.57
2023-05-07T17:12:14.971Z,41.06
2023-05-07T17:14:47.767Z,40.73
2023-05-07T17:17:20.679Z,41.33
2023-05-07T17:19:53.461Z,41.25
2023-05-07T17:22:27.076Z,40.50
2023-05-07T17:24:58.680Z,40.90
2023-05-07T17:27:31.398Z,41.19
2023-05-07T17:30:03.944Z,41.44
2023-05-07T17:32:36.606Z,41.78
2023-05-07T17:35:11.865Z,42.01
2023-05-07T17:37:47.259Z,42.29
2023-05-07T17:40:20.757Z,42.47
2023-05-07T17:42:56.286Z,43.10
2023-05-07T17:45:29.062Z,42.82
2023-05-07T17:48:00.771Z,42.84
2023-05-07T17:50:32.393Z,43.05
2023-05-07T17:53:06.082Z,43.15
2023-05-07T17:55:43.228Z,43.11
2023-05-07T17:58:15.850Z,43.76
2023-05-07T18:00:46.862Z,43.70
2023-05-07T18:03:20.405Z,43.63
2023-05-07T18:05:52.706Z,43.86
2023-05-07T18:08:24.532Z,43.91
2023-05-07T18:10:59.291Z,44.10
2023-05-07T18:13:31.440Z,44.16
2023-05-07T18:16:04.490Z,44.60
2023-05-07T18:18:37.145Z,44.62
2023-05-07T18:21:14.873Z,44.96
2023-05-07T18:23:48.872Z,45.04
2023-05-07T18:26:21.906Z,45.17
2023-05-07T18:28:53.061Z,45.34
2023-05-07T18:31:25.035Z,45.72
2023-05-07T18:33:57.623Z,45.99
2023-05-07T18:36:30.139Z,46.21
2023-05-07T18:39:03.304Z,46.43
2023-05-07T18:41:38.631Z,46.76
2023-05-07T18:44:10.331Z,47.15
2023-05-07T18:46:44.211Z,47.40
2023-05-07T18:49:16.357Z,47.72
2023-05-07T18:51:49.977Z,47.85
2023-05-07T18:54:22.620Z,48.13
2023-05-07T18:56:54.775Z,48.30
2023-05-07T18:59:25.646Z,48.52
2023-05-07T19:01:58.788Z,48.89
2023-05-07T19:04:31.543Z,49.25
2023-05-07T19:07:05.208Z,49.69
2023-05-07T19:09:47.970Z,49.87
2023-05-07T19:12:30.930Z,50.06
2023-05-07T19:15:05.079Z,50.16
2023-05-07T19:17:38.302Z,50.41
2023-05-07T19:20:13.140Z,50.74
2023-05-07T19:22:48.737Z,50.92
2023-05-07T19:25:22.851Z,51.11
2023-05-07T19:27:57.399Z,51.44
2023-05-07T19:30:31.325Z,51.76
2023-05-07T19:33:03.751Z,52.01
2023-05-07T19:35:40.176Z,52.13
2023-05-07T19:38:14.477Z,52.49
2023-05-07T19:40:51.416Z,52.61
2023-05-07T19:43:24.596Z,53.01
2023-05-07T19:45:56.634Z,52.98
2023-05-07T19:48:29.727Z,53.40
2023-05-07T19:51:04.247Z,53.55
2023-05-07T19:53:38.016Z,53.72
2023-05-07T19:56:12.216Z,53.94
2023-05-07T19:58:44.900Z,54.13
2023-05-07T20:01:17.735Z,54.49
2023-05-07T20:03:49.658Z,54.71
2023-05-07T20:06:26.230Z,54.79
2023-05-07T20:08:57.933Z,54.93
2023-05-07T20:11:29.888Z,55.27
2023-05-07T20:14:03.996Z,55.68
2023-05-07T20:16:39.174Z,55.84
2023-05-07T20:19:14.161Z,55.96
2023-05-07T20:21:50.666Z,56.34
2023-05-07T20:24:26.572Z,56.71
2023-05-07T20:26:59.751Z,56.77
2023-05-07T20:29:31.062Z,57.17
2023-05-07T20:32:03.740Z,57.47
2023-05-07T20:34:38.191Z,57.94
2023-05-07T20:37:16.379Z,57.92
2023-05-07T20:39:53.264Z,58.27
2023-05-07T20:42:28.033Z,58.29
2023-05-07T20:45:03.761Z,58.68
2023-05-07T20:47:39.202Z,58.79
2023-05-07T20:50:30.342Z,59.12
2023-05-07T20:53:02.398Z,59.35
2023-05-07T20:55:37.052Z,59.61
2023-05-07T20:58:10.833Z,60.10
2023-05-07T21:00:48.927Z,60.12
2023-05-07T21:03:24.467Z,60.41
2023-05-07T21:06:00.979Z,60.79
2023-05-07T21:08:38.496Z,60.78
2023-05-07T21:11:13.539Z,60.97
2023-05-07T21:13:47.708Z,61.31
2023-05-07T21:16:22.869Z,61.41
2023-05-07T21:19:03.127Z,61.58
2023-05-07T21:21:37.102Z,61.80
2023-05-07T21:24:12.776Z,62.29
2023-05-07T21:26:46.295Z,62.06
2023-05-07T21:29:28.487Z,62.53
2023-05-07T21:32:05.725Z,62.62
2023-05-07T21:34:40.861Z,62.93
2023-05-07T21:37:13.548Z,63.01
2023-05-07T21:39:55.402Z,63.52
2023-05-07T21:42:32.711Z,63.87
2023-05-07T21:45:07.510Z,64.07
2023-05-07T21:47:41.074Z,64.07
2023-05-07T21:50:21.687Z,63.68
2023-05-07T21:52:54.533Z,64.11
2023-05-07T21:55:28.026Z,64.02
2023-05-07T21:58:06.096Z,64.21
2023-05-07T22:00:41.386Z,64.07
2023-05-07T22:03:15.624Z,64.62
2023-05-07T22:05:48.051Z,64.59
2023-05-07T22:08:22.478Z,64.55
2023-05-07T22:10:58.388Z,65.07
2023-05-07T22:13:31.743Z,64.89
2023-05-07T22:16:05.689Z,64.84
2023-05-07T22:18:42.090Z,65.27
2023-05-07T22:21:15.588Z,65.15
2023-05-07T22:23:49.704Z,65.38
2023-05-07T22:26:28.522Z,65.83
2023-05-07T22:29:01.754Z,65.76
2023-05-07T22:31:33.413Z,66.17
2023-05-07T22:34:06.646Z,66.41
2023-05-07T22:36:42.874Z,66.29
2023-05-07T22:39:14.561Z,66.42
2023-05-07T22:41:46.213Z,66.50
2023-05-07T22:44:19.222Z,66.72
2023-05-07T22:46:51.663Z,67.21
2023-05-07T22:49:24.511Z,67.68
2023-05-07T22:51:56.155Z,67.51
2023-05-07T22:54:33.433Z,67.59
2023-05-07T22:57:06.024Z,67.88
2023-05-07T22:59:37.848Z,68.37
2023-05-07T23:02:10.403Z,68.25
2023-05-07T23:04:43.683Z,68.31
2023-05-07T23:07:14.483Z,68.33
2023-05-07T23:09:47.906Z,68.62
2023-05-07T23:12:19.039Z,68.94
2023-05-07T23:14:51.297Z,69.18
2023-05-07T23:17:25.355Z,69.53
2023-05-07T23:19:57.067Z,69.35
2023-05-07T23:22:29.615Z,69.26
2023-05-07T23:25:00.850Z,69.73
2023-05-07T23:27:33.242Z,69.89
2023-05-07T23:30:08.884Z,69.80
2023-05-07T23:32:43.095Z,70.10
2023-05-07T23:35:20.823Z,70.22
2023-05-07T23:37:52.760Z,70.46
2023-05-07T23:40:24.151Z,70.38
2023-05-07T23:42:55.893Z,70.75
2023-05-07T23:45:28.602Z,70.67
2023-05-07T23:48:00.995Z,70.88
2023-05-07T23:50:33.235Z,71.48
2023-05-07T23:53:05.385Z,71.19
2023-05-07T23:55:36.830Z,71.39
2023-05-07T23:58:09.148Z,71.63
